Time;durP1;ratioP1;P1;durP2;ratioP2;P2;SDS_P1;SDS_P2;PMS_P1;PMS_P2;Temp;Humidity;BMP_temperature;BMP_pressure;BME280_temperature;BME280_humidity;BME280_pressure;Samples;Min_cycle;Max_cycle;Signal;HPM_P1;HPM_P2
2023/12/26 00:02:11;;;;;;;0.20;0.20;;;;;;;9.17;100.00;100466.97;5112722;28;20023;-58
2023/12/26 00:04:36;;;;;;;0.20;0.20;;;;;;;9.14;100.00;100461.72;5113065;28;20036;-58
2023/12/26 00:07:02;;;;;;;0.20;0.20;;;;;;;9.14;100.00;100469.44;5112202;28;20020;-58
2023/12/26 00:09:27;;;;;;;0.20;0.20;;;;;;;9.12;100.00;100461.69;5112522;28;20024;-58
2023/12/26 00:11:53;;;;;;;0.20;0.20;;;;;;;9.12;100.00;100464.25;5113081;28;20023;-58
2023/12/26 00:14:18;;;;;;;0.20;0.20;;;;;;;9.10;100.00;100473.63;5111688;28;20035;-58
2023/12/26 00:16:44;;;;;;;0.20;0.20;;;;;;;9.10;100.00;100457.31;5113155;28;20024;-58
2023/12/26 00:19:09;;;;;;;0.30;0.30;;;;;;;9.09;100.00;100464.19;5112709;28;20089;-58
2023/12/26 00:21:37;;;;;;;0.20;0.20;;;;;;;9.09;100.00;100459.03;5111956;28;20028;-58
2023/12/26 00:24:03;;;;;;;0.20;0.20;;;;;;;9.08;100.00;100462.44;5112601;28;20024;-58
2023/12/26 00:26:28;;;;;;;0.20;0.20;;;;;;;9.07;100.00;100458.97;5112629;28;20031;-58
2023/12/26 00:28:53;;;;;;;0.30;0.30;;;;;;;9.08;100.00;100457.28;5112153;28;20479;-58
2023/12/26 00:31:19;;;;;;;0.28;0.28;;;;;;;9.06;100.00;100464.97;5112399;28;20551;-59
2023/12/26 00:33:44;;;;;;;0.30;0.30;;;;;;;9.08;100.00;100465.00;5112797;28;20429;-59
2023/12/26 00:36:13;;;;;;;0.22;0.22;;;;;;;9.09;100.00;100455.59;5111350;28;20027;-59
2023/12/26 00:38:39;;;;;;;0.20;0.20;;;;;;;9.08;100.00;100454.72;5112419;28;20467;-59
2023/12/26 00:41:05;;;;;;;0.20;0.20;;;;;;;9.07;100.00;100471.81;5112837;28;20030;-59
2023/12/26 00:43:30;;;;;;;0.30;0.30;;;;;;;9.07;100.00;100473.53;5112178;28;20023;-59
2023/12/26 00:45:56;;;;;;;0.20;0.20;;;;;;;9.05;100.00;100475.19;5116431;28;20034;-59
2023/12/26 00:48:21;;;;;;;0.28;0.28;;;;;;;9.05;100.00;100480.31;5115693;28;20046;-59
2023/12/26 00:50:47;;;;;;;0.30;0.30;;;;;;;9.05;100.00;100475.19;5115370;28;20032;-59
2023/12/26 00:53:12;;;;;;;0.20;0.20;;;;;;;9.04;100.00;100473.47;5115841;28;20048;-59
2023/12/26 00:55:37;;;;;;;0.20;0.20;;;;;;;9.03;100.00;100472.56;5116002;28;20040;-58
2023/12/26 00:58:03;;;;;;;0.20;0.20;;;;;;;9.02;100.00;100487.94;5115209;28;20079;-58
2023/12/26 01:00:29;;;;;;;0.30;0.30;;;;;;;9.01;100.00;100484.53;5115675;28;20039;-59
2023/12/26 01:02:54;;;;;;;0.20;0.20;;;;;;;9.02;100.00;100496.53;5114943;28;20103;-58
2023/12/26 01:05:20;;;;;;;0.30;0.30;;;;;;;9.02;100.00;100495.66;5115639;28;20019;-58
2023/12/26 01:07:45;;;;;;;0.30;0.30;;;;;;;9.02;100.00;100480.25;5115792;28;20102;-59
2023/12/26 01:10:12;;;;;;;0.30;0.30;;;;;;;9.00;100.00;100489.59;5114788;28;20106;-58
2023/12/26 01:12:37;;;;;;;0.20;0.20;;;;;;;8.99;100.00;100485.31;5115859;28;20046;-59
2023/12/26 01:15:03;;;;;;;0.30;0.30;;;;;;;8.99;100.00;100490.44;5115512;28;20460;-59
2023/12/26 01:17:28;;;;;;;0.20;0.20;;;;;;;8.99;100.00;100495.59;5114504;28;20116;-58
2023/12/26 01:19:53;;;;;;;0.20;0.20;;;;;;;8.98;100.00;100494.69;5115604;28;20114;-59
2023/12/26 01:22:19;;;;;;;0.20;0.20;;;;;;;8.98;100.00;100493.84;5115251;28;20467;-59
2023/12/26 01:24:44;;;;;;;0.20;0.20;;;;;;;8.99;100.00;100495.59;5114740;28;20049;-58
2023/12/26 01:27:09;;;;;;;0.30;0.30;;;;;;;8.98;100.00;100491.25;5115447;28;20026;-58
2023/12/26 01:29:35;;;;;;;0.20;0.20;;;;;;;8.99;100.00;100500.72;5115646;28;20015;-59
2023/12/26 01:32:01;;;;;;;0.22;0.22;;;;;;;8.97;100.00;100497.22;5114610;28;20055;-58
2023/12/26 01:34:26;;;;;;;0.20;0.20;;;;;;;8.97;100.00;100492.94;5115035;28;20019;-58
2023/12/26 01:36:51;;;;;;;0.20;0.20;;;;;;;8.98;100.00;100491.25;5115135;28;20032;-58
2023/12/26 01:39:17;;;;;;;0.20;0.20;;;;;;;8.98;100.00;100504.13;5113962;28;20038;-59
2023/12/26 01:41:42;;;;;;;0.20;0.20;;;;;;;9.00;100.00;100510.16;5115484;28;20371;-58
2023/12/26 01:44:07;;;;;;;0.30;0.30;;;;;;;9.01;100.00;100524.75;5115436;28;20019;-58
2023/12/26 01:46:34;;;;;;;0.20;0.20;;;;;;;9.01;100.00;100524.75;5113896;28;20085;-59
2023/12/26 01:49:00;;;;;;;0.20;0.20;;;;;;;9.01;100.00;100515.38;5115147;28;20020;-58
2023/12/26 01:51:28;;;;;;;0.30;0.30;;;;;;;9.01;100.00;100510.22;5114705;28;20116;-58
2023/12/26 01:53:54;;;;;;;0.15;0.15;;;;;;;9.01;100.00;100529.91;5114025;28;20024;-58
2023/12/26 01:56:21;;;;;;;0.20;0.20;;;;;;;9.00;100.00;100541.88;5113709;28;20039;-59
2023/12/26 01:58:48;;;;;;;0.25;0.25;;;;;;;9.01;100.00;100540.19;5114848;28;20015;-59
2023/12/26 02:01:14;;;;;;;0.30;0.30;;;;;;;9.01;100.00;100540.19;5113905;28;20020;-59
2023/12/26 02:03:40;;;;;;;0.30;0.30;;;;;;;9.00;100.00;100538.44;5114836;28;20019;-59
2023/12/26 02:06:07;;;;;;;0.20;0.20;;;;;;;8.99;100.00;100544.41;5113778;28;20016;-59
2023/12/26 02:08:32;;;;;;;0.30;0.30;;;;;;;9.00;100.00;100541.00;5114130;28;20121;-59
2023/12/26 02:10:58;;;;;;;0.28;0.28;;;;;;;8.99;100.00;100532.44;5114682;28;20376;-59
2023/12/26 02:13:23;;;;;;;0.30;0.30;;;;;;;9.00;100.00;100553.84;5113558;28;20483;-59
2023/12/26 02:15:51;;;;;;;0.30;0.30;;;;;;;8.99;100.00;100549.56;5114410;28;20055;-59
2023/12/26 02:18:18;;;;;;;0.30;0.30;;;;;;;9.00;100.00;100530.72;5114305;28;20088;-59
2023/12/26 02:20:43;;;;;;;0.20;0.20;;;;;;;8.99;100.00;100523.84;5113540;28;20497;-59
2023/12/26 02:23:08;;;;;;;0.25;0.25;;;;;;;9.01;100.00;100532.47;5114296;28;20024;-59
2023/12/26 02:25:34;;;;;;;0.30;0.30;;;;;;;9.00;100.00;100543.56;5114181;28;20449;-59
2023/12/26 02:28:02;;;;;;;0.28;0.28;;;;;;;9.01;100.00;100545.31;5113456;28;20031;-59
2023/12/26 02:30:28;;;;;;;0.20;0.20;;;;;;;9.01;100.00;100546.22;5113944;28;20107;-59
2023/12/26 02:32:56;;;;;;;0.20;0.20;;;;;;;9.01;100.00;100555.59;5114032;28;20468;-59
2023/12/26 02:35:21;;;;;;;0.30;0.30;;;;;;;9.01;100.00;100543.63;5113045;28;20023;-59
2023/12/26 02:37:49;;;;;;;0.20;0.20;;;;;;;9.01;100.00;100547.88;5114297;28;20044;-59
2023/12/26 02:40:15;;;;;;;0.20;0.20;;;;;;;9.02;100.00;100555.66;5113963;28;20075;-59
2023/12/26 02:42:40;;;;;;;0.30;0.30;;;;;;;9.02;100.00;100541.94;5113148;28;20024;-59
2023/12/26 02:45:06;;;;;;;0.30;0.30;;;;;;;9.01;100.00;100561.63;5114070;28;20026;-59
2023/12/26 02:47:32;;;;;;;0.30;0.30;;;;;;;9.01;100.00;100556.50;5113431;28;20364;-59
2023/12/26 02:49:57;;;;;;;0.30;0.30;;;;;;;9.02;100.00;100554.78;5113090;28;20024;-59
2023/12/26 02:52:23;;;;;;;0.22;0.22;;;;;;;9.01;100.00;100560.75;5113783;28;20370;-59
2023/12/26 02:54:48;;;;;;;0.30;0.30;;;;;;;9.02;100.00;100562.50;5114002;28;20527;-59
2023/12/26 02:57:13;;;;;;;0.30;0.30;;;;;;;9.00;100.00;100554.75;5112710;28;20486;-59
2023/12/26 02:59:39;;;;;;;0.25;0.25;;;;;;;9.02;100.00;100559.94;5113898;28;20027;-59
2023/12/26 03:02:04;;;;;;;0.20;0.20;;;;;;;9.01;100.00;100571.03;5113819;28;20411;-59
2023/12/26 03:04:29;;;;;;;0.20;0.20;;;;;;;8.99;100.00;100578.69;5112604;28;20510;-59
2023/12/26 03:06:55;;;;;;;0.20;0.20;;;;;;;9.00;100.00;100587.25;5113749;28;20408;-59
2023/12/26 03:09:22;;;;;;;0.30;0.30;;;;;;;8.99;100.00;100591.53;5112828;28;20019;-59
2023/12/26 03:11:47;;;;;;;0.20;0.20;;;;;;;9.00;100.00;100594.97;5113511;28;20080;-59
2023/12/26 03:14:14;;;;;;;0.30;0.30;;;;;;;8.99;100.00;100600.97;5113274;28;20024;-59
2023/12/26 03:16:39;;;;;;;0.20;0.20;;;;;;;8.99;100.00;100603.53;5112498;28;20098;-59
2023/12/26 03:19:04;;;;;;;0.20;0.20;;;;;;;8.98;100.00;100612.06;5113318;28;20176;-59
2023/12/26 03:21:30;;;;;;;0.30;0.30;;;;;;;8.98;100.00;100600.06;5113275;28;20081;-59
2023/12/26 03:23:55;;;;;;;0.30;0.30;;;;;;;8.98;100.00;100596.66;5112688;28;20019;-59
2023/12/26 03:26:21;;;;;;;0.30;0.30;;;;;;;8.96;100.00;100598.28;5094684;28;20077;-59
2023/12/26 03:28:47;;;;;;;0.30;0.30;;;;;;;8.92;100.00;100606.72;5093079;28;20391;-59
2023/12/26 03:31:12;;;;;;;0.28;0.28;;;;;;;8.92;100.00;100606.72;5091746;28;20468;-59
2023/12/26 03:33:38;;;;;;;0.30;0.30;;;;;;;8.90;100.00;100610.09;5092995;28;20036;-59
2023/12/26 03:36:04;;;;;;;0.30;0.30;;;;;;;8.85;100.00;100613.38;5093087;28;20035;-59
2023/12/26 03:38:29;;;;;;;0.20;0.20;;;;;;;8.84;100.00;100619.31;5091750;28;20040;-59
2023/12/26 03:40:55;;;;;;;0.20;0.20;;;;;;;8.81;100.00;100614.94;5092978;28;20016;-59
2023/12/26 03:43:20;;;;;;;0.30;0.30;;;;;;;8.80;100.00;100620.91;5092580;28;20434;-59
2023/12/26 03:45:46;;;;;;;0.20;0.20;;;;;;;8.79;100.00;100615.72;5092005;28;20028;-59
2023/12/26 03:48:11;;;;;;;0.20;0.20;;;;;;;8.76;100.00;100613.94;5092326;28;20111;-59
2023/12/26 03:50:38;;;;;;;0.30;0.30;;;;;;;8.76;100.00;100625.91;5092810;28;20494;-59
2023/12/26 03:53:03;;;;;;;0.30;0.30;;;;;;;8.73;100.00;100626.69;5092047;28;20039;-58
2023/12/26 03:55:29;;;;;;;0.25;0.25;;;;;;;8.72;100.00;100624.94;5092563;28;20028;-59
2023/12/26 03:57:54;;;;;;;0.28;0.28;;;;;;;8.73;100.00;100619.84;5092828;28;20027;-59
2023/12/26 04:00:19;;;;;;;0.30;0.30;;;;;;;8.72;100.00;100622.38;5091590;28;20066;-59
2023/12/26 04:02:45;;;;;;;0.30;0.30;;;;;;;8.72;100.00;100625.78;5092635;28;20024;-59
2023/12/26 04:05:10;;;;;;;0.30;0.30;;;;;;;8.75;100.00;100634.44;5092284;28;20021;-59
2023/12/26 04:07:36;;;;;;;0.30;0.30;;;;;;;8.73;100.00;100644.69;5091815;28;20103;-59
2023/12/26 04:10:02;;;;;;;0.20;0.20;;;;;;;8.72;100.00;100651.50;5092498;28;20535;-59
2023/12/26 04:12:28;;;;;;;0.20;0.20;;;;;;;8.73;100.00;100658.38;5092218;28;20468;-59
2023/12/26 04:14:54;;;;;;;0.30;0.30;;;;;;;8.73;100.00;100657.53;5091727;28;20024;-58
2023/12/26 04:17:21;;;;;;;0.20;0.20;;;;;;;8.75;100.00;100661.00;5092136;28;20031;-58
2023/12/26 04:19:46;;;;;;;0.25;0.25;;;;;;;8.73;100.00;100654.94;5094448;28;20028;-58
2023/12/26 04:22:12;;;;;;;0.30;0.30;;;;;;;8.73;100.00;100647.25;5096106;28;20031;-58
2023/12/26 04:24:37;;;;;;;0.20;0.20;;;;;;;8.73;100.00;100652.38;5096348;28;20031;-58
2023/12/26 04:27:02;;;;;;;0.30;0.30;;;;;;;8.75;100.00;100657.56;5095732;28;20438;-58
2023/12/26 04:29:28;;;;;;;0.20;0.20;;;;;;;8.74;100.00;100659.28;5096007;28;20051;-58
2023/12/26 04:31:53;;;;;;;0.30;0.30;;;;;;;8.80;100.00;100663.75;5096050;28;20035;-58
2023/12/26 04:34:18;;;;;;;0.30;0.30;;;;;;;8.81;100.00;100681.78;5094880;28;20039;-58
2023/12/26 04:36:44;;;;;;;0.30;0.30;;;;;;;8.77;100.00;100684.19;5096277;28;20384;-58
2023/12/26 04:39:09;;;;;;;0.20;0.20;;;;;;;8.78;100.00;100697.09;5095963;28;20092;-58
2023/12/26 04:41:34;;;;;;;0.30;0.30;;;;;;;8.73;100.00;100696.06;5095375;28;20028;-58
2023/12/26 04:44:00;;;;;;;0.30;0.30;;;;;;;8.73;100.00;100693.50;5096154;28;20024;-59
2023/12/26 04:46:25;;;;;;;0.30;0.30;;;;;;;8.72;100.00;100697.75;5095439;28;20129;-58
2023/12/26 04:48:52;;;;;;;0.20;0.20;;;;;;;8.68;100.00;100705.31;5094965;28;20031;-59
2023/12/26 04:51:17;;;;;;;0.20;0.20;;;;;;;8.65;100.00;100720.59;5095678;28;20089;-58
2023/12/26 04:53:46;;;;;;;0.25;0.25;;;;;;;8.63;100.00;100724.81;5095779;28;20521;-58
2023/12/26 04:56:18;;;;;;;0.30;0.30;;;;;;;8.57;100.00;100723.78;5094634;28;20039;-58
2023/12/26 04:58:46;;;;;;;0.28;0.28;;;;;;;8.54;100.00;100728.78;5095679;28;20028;-58
2023/12/26 05:01:11;;;;;;;0.20;0.20;;;;;;;8.46;100.00;100725.09;5095244;28;20048;-58
2023/12/26 05:03:37;;;;;;;0.20;0.20;;;;;;;8.46;100.00;100714.81;5094658;28;20455;-58
2023/12/26 05:06:04;;;;;;;0.30;0.30;;;;;;;8.47;100.00;100719.13;5095700;28;20492;-58
2023/12/26 05:08:29;;;;;;;0.25;0.25;;;;;;;8.42;100.00;100733.47;5095017;28;20475;-58
2023/12/26 05:10:55;;;;;;;0.20;0.20;;;;;;;8.37;100.00;100747.84;5094510;28;20055;-58
2023/12/26 05:13:20;;;;;;;0.20;0.20;;;;;;;8.32;100.00;100752.78;5095056;28;20028;-58
2023/12/26 05:15:46;;;;;;;0.30;0.30;;;;;;;8.31;100.00;100755.31;5096693;28;20021;-58
2023/12/26 05:18:12;;;;;;;0.30;0.30;;;;;;;8.25;100.00;100750.81;5114583;28;20051;-58
2023/12/26 05:20:38;;;;;;;0.30;0.30;;;;;;;8.26;100.00;100759.41;5115810;28;20023;-58
2023/12/26 05:23:03;;;;;;;0.30;0.30;;;;;;;8.19;100.00;100754.03;5114830;28;20019;-58
2023/12/26 05:25:29;;;;;;;0.30;0.30;;;;;;;8.11;100.00;100755.44;5115124;28;20031;-58
2023/12/26 05:27:54;;;;;;;0.30;0.30;;;;;;;8.12;100.00;100759.75;5115287;28;20028;-58
2023/12/26 05:30:19;;;;;;;0.30;0.30;;;;;;;8.11;100.00;100768.28;5114149;28;20546;-58
2023/12/26 05:32:45;;;;;;;0.20;0.20;;;;;;;8.10;100.00;100770.78;5115470;28;20469;-58
2023/12/26 05:35:10;;;;;;;0.30;0.30;;;;;;;8.11;100.00;100775.06;5115209;28;20443;-58
2023/12/26 05:37:35;;;;;;;0.30;0.30;;;;;;;8.09;100.00;100785.28;5114295;28;20024;-58
2023/12/26 05:40:01;;;;;;;0.30;0.30;;;;;;;8.10;100.00;100794.75;5115200;28;20027;-58
2023/12/26 05:42:26;;;;;;;0.30;0.30;;;;;;;8.10;100.00;100799.03;5114955;28;20032;-58
2023/12/26 05:44:52;;;;;;;0.30;0.30;;;;;;;8.12;100.00;100794.81;5114387;28;20413;-58
2023/12/26 05:47:18;;;;;;;0.25;0.25;;;;;;;8.23;100.00;100804.66;5114741;28;20043;-58
2023/12/26 05:49:44;;;;;;;0.30;0.30;;;;;;;8.23;100.00;100814.94;5115230;28;20149;-58
2023/12/26 05:52:09;;;;;;;0.30;0.30;;;;;;;8.22;100.00;100823.47;5114119;28;20019;-58
2023/12/26 05:54:35;;;;;;;0.22;0.22;;;;;;;8.12;100.00;100823.94;5114954;28;20027;-58
2023/12/26 05:57:00;;;;;;;0.30;0.30;;;;;;;8.12;100.00;100841.91;5114931;28;20047;-58
2023/12/26 05:59:25;;;;;;;0.30;0.30;;;;;;;8.07;100.00;100848.56;5113887;28;20364;-58
2023/12/26 06:01:51;;;;;;;0.30;0.30;;;;;;;8.00;100.00;100846.53;5114338;28;20457;-58
2023/12/26 06:04:16;;;;;;;0.30;0.30;;;;;;;7.97;100.00;100846.44;5114371;28;20054;-58
2023/12/26 06:06:42;;;;;;;0.22;0.22;;;;;;;7.95;100.00;100850.59;5113987;28;20028;-58
2023/12/26 06:09:07;;;;;;;0.40;0.40;;;;;;;7.93;100.00;100849.66;5114523;28;20098;-58
2023/12/26 06:11:32;;;;;;;0.25;0.25;;;;;;;7.90;100.00;100847.84;5113966;28;20352;-58
2023/12/26 06:13:58;;;;;;;0.20;0.20;;;;;;;7.83;100.00;100854.44;5113698;28;20055;-58
2023/12/26 06:16:23;;;;;;;0.20;0.20;;;;;;;7.76;100.00;100867.84;5113874;28;20476;-58
2023/12/26 06:18:48;;;;;;;0.30;0.30;;;;;;;7.73;100.00;100866.03;5114527;28;20383;-58
2023/12/26 06:21:14;;;;;;;0.30;0.30;;;;;;;7.66;100.00;100873.41;5113358;28;20026;-58
2023/12/26 06:23:39;;;;;;;0.30;0.30;;;;;;;7.66;100.00;100875.97;5114266;28;20080;-58
2023/12/26 06:26:05;;;;;;;0.28;0.28;;;;;;;7.56;100.00;100890.94;5114072;28;20019;-58
2023/12/26 06:28:30;;;;;;;0.30;0.30;;;;;;;7.56;100.00;100895.19;5112799;28;20039;-58
2023/12/26 06:30:56;;;;;;;0.30;0.30;;;;;;;7.50;100.00;100894.94;5114004;28;20023;-58
2023/12/26 06:33:21;;;;;;;0.30;0.30;;;;;;;7.45;100.00;100896.44;5113079;28;20019;-58
2023/12/26 06:35:46;;;;;;;0.30;0.30;;;;;;;7.37;100.00;100907.25;5114005;28;20027;-58
2023/12/26 06:38:12;;;;;;;0.20;0.20;;;;;;;7.33;100.00;100907.03;5113821;28;20016;-58
2023/12/26 06:40:41;;;;;;;0.25;0.25;;;;;;;7.22;100.00;100914.25;5112984;28;20098;-58
2023/12/26 06:43:08;;;;;;;0.30;0.30;;;;;;;7.19;100.00;100920.13;5113365;28;20525;-58
2023/12/26 06:45:34;;;;;;;0.20;0.20;;;;;;;7.13;100.00;100922.41;5113586;28;20024;-58
2023/12/26 06:47:59;;;;;;;0.30;0.30;;;;;;;7.10;100.00;100912.00;5112759;28;20046;-58
2023/12/26 06:50:24;;;;;;;0.30;0.30;;;;;;;7.05;100.00;100916.06;5113268;28;20028;-58
2023/12/26 06:52:50;;;;;;;0.30;0.30;;;;;;;7.05;100.00;100916.06;5113452;28;20031;-58
2023/12/26 06:55:15;;;;;;;0.30;0.30;;;;;;;7.00;100.00;100922.69;5112578;28;20035;-58
2023/12/26 06:57:40;;;;;;;0.30;0.30;;;;;;;6.96;100.00;100931.91;5113404;28;20398;-58
2023/12/26 07:00:07;;;;;;;0.40;0.40;;;;;;;6.92;100.00;100941.13;5113341;28;20016;-58
2023/12/26 07:02:34;;;;;;;0.30;0.30;;;;;;;6.86;100.00;100940.84;5112222;28;20012;-58
2023/12/26 07:04:59;;;;;;;0.30;0.30;;;;;;;6.79;100.00;100938.81;5113476;28;20111;-58
2023/12/26 07:07:25;;;;;;;0.30;0.30;;;;;;;6.78;100.00;100942.19;5113113;28;20123;-58
2023/12/26 07:09:50;;;;;;;0.30;0.30;;;;;;;6.72;100.00;100953.00;5112672;28;20097;-58
2023/12/26 07:12:16;;;;;;;0.30;0.30;;;;;;;6.71;100.00;100953.84;5112888;28;20024;-58
2023/12/26 07:14:41;;;;;;;0.30;0.30;;;;;;;6.73;100.00;100964.16;5113067;28;20015;-58
2023/12/26 07:17:06;;;;;;;0.30;0.30;;;;;;;6.69;100.00;100970.81;5112290;28;20035;-58
2023/12/26 07:19:32;;;;;;;0.35;0.35;;;;;;;6.68;100.00;100971.59;5112566;28;20031;-58
2023/12/26 07:21:57;;;;;;;0.30;0.30;;;;;;;6.64;100.00;100976.53;5113220;28;20617;-58
2023/12/26 07:24:22;;;;;;;0.30;0.30;;;;;;;6.67;100.00;100985.22;5111857;28;20030;-58
2023/12/26 07:26:48;;;;;;;0.40;0.40;;;;;;;6.66;100.00;100990.25;5113049;28;20032;-58
2023/12/26 07:29:13;;;;;;;0.30;0.30;;;;;;;6.65;100.00;100996.19;5112439;28;20459;-58
2023/12/26 07:31:39;;;;;;;0.30;0.30;;;;;;;6.68;100.00;101007.47;5112365;28;20114;-58
2023/12/26 07:34:08;;;;;;;0.35;0.35;;;;;;;6.72;100.00;101008.50;5113125;28;20153;-58
2023/12/26 07:36:36;;;;;;;0.30;0.30;;;;;;;6.73;100.00;101007.69;5112492;28;20019;-58
2023/12/26 07:39:02;;;;;;;0.30;0.30;;;;;;;6.81;100.00;101008.94;5112355;28;20024;-58
2023/12/26 07:41:28;;;;;;;0.28;0.28;;;;;;;6.83;100.00;101017.56;5112625;28;20047;-58
2023/12/26 07:43:54;;;;;;;0.30;0.30;;;;;;;6.83;100.00;101029.47;5111912;28;20523;-58
2023/12/26 07:46:20;;;;;;;0.30;0.30;;;;;;;6.80;100.00;101027.66;5112253;28;20497;-58
2023/12/26 07:48:46;;;;;;;0.40;0.40;;;;;;;6.82;100.00;101023.50;5112727;28;20053;-58
2023/12/26 07:51:12;;;;;;;0.30;0.30;;;;;;;6.84;100.00;101036.38;5111730;28;20063;-58
2023/12/26 07:53:37;;;;;;;0.30;0.30;;;;;;;6.83;100.00;101032.94;5113704;28;20117;-58
2023/12/26 07:56:02;;;;;;;0.30;0.30;;;;;;;6.84;100.00;101024.47;5116813;28;20093;-58
2023/12/26 07:58:28;;;;;;;0.30;0.30;;;;;;;6.84;100.00;101036.38;5115917;28;20391;-58
2023/12/26 08:00:53;;;;;;;0.40;0.40;;;;;;;6.82;100.00;101041.44;5116733;28;20032;-58
2023/12/26 08:03:18;;;;;;;0.40;0.40;;;;;;;6.81;100.00;101043.94;5116364;28;20028;-58
2023/12/26 08:05:44;;;;;;;0.30;0.30;;;;;;;6.77;100.00;101053.13;5115629;28;20043;-58
2023/12/26 08:08:11;;;;;;;0.30;0.30;;;;;;;6.73;100.00;101057.22;5116366;28;20019;-58
2023/12/26 08:10:36;;;;;;;0.30;0.30;;;;;;;6.71;100.00;101061.41;5116589;28;20020;-58
2023/12/26 08:13:02;;;;;;;0.30;0.30;;;;;;;6.75;100.00;101064.97;5115701;28;20032;-58
2023/12/26 08:15:27;;;;;;;0.30;0.30;;;;;;;6.74;100.00;101073.50;5116275;28;20016;-57
2023/12/26 08:17:52;;;;;;;0.40;0.40;;;;;;;6.75;100.00;101072.66;5116515;28;20030;-58
2023/12/26 08:20:18;;;;;;;0.30;0.30;;;;;;;6.76;100.00;101084.69;5115453;28;20153;-58
2023/12/26 08:22:43;;;;;;;0.30;0.30;;;;;;;6.78;100.00;101095.00;5116423;28;20016;-58
2023/12/26 08:25:09;;;;;;;0.30;0.30;;;;;;;6.83;100.00;101094.44;5116123;28;20030;-58
2023/12/26 08:27:35;;;;;;;0.30;0.30;;;;;;;6.88;100.00;101094.63;5115267;28;20098;-58
2023/12/26 08:30:00;;;;;;;0.30;0.30;;;;;;;6.89;100.00;101104.09;5116178;28;20019;-58
2023/12/26 08:32:25;;;;;;;0.40;0.40;;;;;;;6.86;100.00;101109.94;5116190;28;20098;-57
2023/12/26 08:34:51;;;;;;;0.30;0.30;;;;;;;6.86;100.00;101115.06;5115240;28;20020;-58
2023/12/26 08:37:16;;;;;;;0.30;0.30;;;;;;;6.88;100.00;101118.59;5115724;28;20016;-58
2023/12/26 08:39:41;;;;;;;0.30;0.30;;;;;;;6.86;100.00;101122.75;5116090;28;20051;-58
2023/12/26 08:42:07;;;;;;;0.30;0.30;;;;;;;6.85;100.00;101120.13;5115093;28;20024;-58
2023/12/26 08:44:33;;;;;;;0.30;0.30;;;;;;;6.85;100.00;101131.22;5115844;28;20088;-57
2023/12/26 08:47:05;;;;;;;0.38;0.38;;;;;;;6.85;100.00;101133.78;5114621;28;20641;-58
2023/12/26 08:49:31;;;;;;;0.40;0.40;;;;;;;6.89;100.00;101133.16;5114325;28;20365;-58
2023/12/26 08:51:56;;;;;;;0.30;0.30;;;;;;;6.91;100.00;101128.97;5114588;28;20486;-58
2023/12/26 08:54:21;;;;;;;0.30;0.30;;;;;;;6.96;100.00;101130.88;5113353;28;20076;-58
2023/12/26 08:56:47;;;;;;;0.30;0.30;;;;;;;6.98;100.00;101142.09;5114653;28;20065;-58
2023/12/26 08:59:12;;;;;;;0.40;0.40;;;;;;;7.02;100.00;101146.56;5114403;28;20023;-58
2023/12/26 09:01:38;;;;;;;0.30;0.30;;;;;;;7.08;100.00;101167.38;5113702;28;20396;-58
2023/12/26 09:04:04;;;;;;;0.30;0.30;;;;;;;7.14;100.00;101169.34;5113996;28;20114;-57
2023/12/26 09:06:29;;;;;;;0.40;0.40;;;;;;;7.21;100.00;101169.72;5109978;28;20081;-57
2023/12/26 09:08:55;;;;;;;0.30;0.30;;;;;;;7.31;100.00;101175.28;5092866;28;20028;-57
2023/12/26 09:11:20;;;;;;;0.30;0.30;;;;;;;7.38;100.00;101167.09;5101274;28;20499;-56
2023/12/26 09:13:46;;;;;;;0.30;0.30;;;;;;;7.47;100.00;101164.09;5103230;28;20016;-57
2023/12/26 09:16:11;;;;;;;0.30;0.30;;;;;;;7.52;100.00;101160.91;5103620;28;20031;-57
2023/12/26 09:18:37;;;;;;;0.30;0.30;;;;;;;7.56;100.00;101167.09;5103068;28;20020;-57
2023/12/26 09:21:02;;;;;;;0.30;0.30;;;;;;;7.52;100.00;101191.69;5100733;28;20043;-57
2023/12/26 09:23:28;;;;;;;0.30;0.30;;;;;;;7.50;100.00;101197.56;5090405;28;20039;-57
2023/12/26 09:25:53;;;;;;;0.40;0.40;;;;;;;7.46;100.00;101200.78;5093314;28;20116;-57
2023/12/26 09:28:19;;;;;;;0.30;0.30;;;;;;;7.41;100.00;101208.25;5093121;28;20525;-58
2023/12/26 09:30:44;;;;;;;0.30;0.30;;;;;;;7.35;100.00;101220.81;5092905;28;20095;-57
2023/12/26 09:33:10;;;;;;;0.30;0.30;;;;;;;7.34;100.00;101227.59;5093528;28;20024;-58
2023/12/26 09:35:35;;;;;;;0.30;0.30;;;;;;;7.31;100.00;101230.03;5093645;28;20012;-57
2023/12/26 09:38:00;;;;;;;0.38;0.38;;;;;;;7.31;100.00;101237.72;5092827;28;20020;-58
2023/12/26 09:40:26;;;;;;;0.30;0.30;;;;;;;7.28;100.00;101241.81;5093399;28;20036;-57
2023/12/26 09:43:02;;;;;;;0.30;0.30;;;;;;;7.20;100.00;101237.16;5093629;28;20016;-57
2023/12/26 09:45:27;;;;;;;0.30;0.30;;;;;;;7.16;100.00;101232.69;5092464;28;20031;-57
2023/12/26 09:47:53;;;;;;;0.32;0.32;;;;;;;7.12;100.00;101241.03;5055761;28;1088156;-58
2023/12/26 09:50:19;;;;;;;0.30;0.30;;;;;;;7.09;100.00;101241.78;5093211;28;20077;-58
2023/12/26 09:52:52;;;;;;;0.30;0.30;;;;;;;7.06;100.00;101251.88;5094300;28;20012;-58
2023/12/26 09:55:19;;;;;;;0.30;0.30;;;;;;;7.02;100.00;101260.22;5094056;28;20476;-58
2023/12/26 09:57:45;;;;;;;0.30;0.30;;;;;;;7.02;100.00;101265.34;5093360;28;20383;-58
2023/12/26 10:00:11;;;;;;;0.40;0.40;;;;;;;7.03;100.00;101258.53;5093950;28;20039;-58
2023/12/26 10:02:36;;;;;;;0.30;0.30;;;;;;;7.06;100.00;101267.25;5094205;28;20478;-58
2023/12/26 10:05:02;;;;;;;0.38;0.38;;;;;;;7.22;100.00;101268.91;5093478;28;20495;-58
2023/12/26 10:07:28;;;;;;;0.30;0.30;;;;;;;7.41;100.00;101277.50;5093636;28;20498;-57
2023/12/26 10:09:54;;;;;;;0.22;0.22;;;;;;;7.54;100.00;101277.31;5094010;28;20028;-57
2023/12/26 10:12:19;;;;;;;0.30;0.30;;;;;;;7.66;100.00;101288.97;5092246;28;20024;-57
2023/12/26 10:14:45;;;;;;;0.30;0.30;;;;;;;7.76;100.00;101304.00;5093082;28;20040;-57
2023/12/26 10:17:12;;;;;;;0.30;0.30;;;;;;;7.87;100.00;101307.94;5092397;28;20032;-57
2023/12/26 10:19:38;;;;;;;0.30;0.30;;;;;;;7.96;100.00;101311.78;5092995;28;20275;-58
2023/12/26 10:22:03;;;;;;;0.30;0.30;;;;;;;8.02;100.00;101319.78;5093243;28;20048;-57
2023/12/26 10:24:29;;;;;;;0.30;0.30;;;;;;;8.08;100.00;101315.81;5092771;28;20509;-58
2023/12/26 10:26:54;;;;;;;0.30;0.30;;;;;;;8.14;100.00;101322.03;5093036;28;20039;-58
2023/12/26 10:29:20;;;;;;;0.28;0.28;;;;;;;8.15;100.00;101305.84;5092542;28;20016;-57
2023/12/26 10:31:45;;;;;;;0.20;0.20;;;;;;;8.18;100.00;101309.41;5093341;28;20497;-58
2023/12/26 10:34:16;;;;;;;0.30;0.30;;;;;;;8.22;100.00;101311.31;5092295;28;20165;-58
2023/12/26 10:36:45;;;;;;;0.30;0.30;;;;;;;8.29;100.00;101303.88;5092929;28;20430;-58
2023/12/26 10:39:11;;;;;;;0.28;0.28;;;;;;;8.31;100.00;101309.97;5092849;28;20079;-58
2023/12/26 10:41:44;;;;;;;0.30;0.30;;;;;;;8.35;100.00;101317.00;5092426;28;20115;-58
2023/12/26 10:44:10;;;;;;;0.30;0.30;;;;;;;8.35;100.00;101292.22;5092959;28;20016;-58
2023/12/26 10:46:35;;;;;;;0.30;0.30;;;;;;;8.40;100.00;101300.13;5091801;28;20055;-58
2023/12/26 10:49:05;;;;;;;0.30;0.30;;;;;;;8.41;100.00;101315.59;5093178;28;20032;-58
2023/12/26 10:51:32;;;;;;;0.20;0.20;;;;;;;8.47;100.00;101301.31;5092399;28;20081;-57
2023/12/26 10:54:14;;;;;;;0.30;0.30;;;;;;;8.57;100.00;101312.09;5092345;28;20028;-58
2023/12/26 10:56:41;;;;;;;0.25;0.25;;;;;;;8.60;100.00;101310.44;5093066;28;20063;-58
2023/12/26 10:59:08;;;;;;;0.30;0.30;;;;;;;8.70;100.00;101312.63;5094853;28;20030;-58
2023/12/26 13:53:03;;;;;;;0.30;0.30;;;;;;;8.20;100.00;101497.81;5094186;28;20062;-58
2023/12/26 13:55:29;;;;;;;0.30;0.30;;;;;;;8.20;100.00;101507.22;5093942;28;20044;-58
2023/12/26 13:57:54;;;;;;;0.20;0.20;;;;;;;8.17;100.00;101507.94;5093346;28;20024;-58
2023/12/26 14:00:19;;;;;;;0.30;0.30;;;;;;;8.16;100.00;101521.56;5093907;28;20039;-58
2023/12/26 14:02:45;;;;;;;0.30;0.30;;;;;;;8.14;100.00;101515.47;5093945;28;20024;-59
2023/12/26 14:05:10;;;;;;;0.20;0.20;;;;;;;8.10;100.00;101528.97;5092866;28;20054;-59
2023/12/26 14:07:35;;;;;;;0.30;0.30;;;;;;;7.97;100.00;101524.03;5093976;28;20103;-59
2023/12/26 14:10:01;;;;;;;0.40;0.40;;;;;;;7.82;100.00;101530.09;5094129;28;20024;-58